createdAt,value
2023-01-22T00:00:18.322Z,55.28
2023-01-22T00:02:49.282Z,51.65
2023-01-22T00:05:18.892Z,50.23
2023-01-22T00:07:50.295Z,49.38
2023-01-22T00:10:19.672Z,47.03
2023-01-22T00:12:50.630Z,48.13
2023-01-22T00:15:21.808Z,48.33
2023-01-22T00:17:53.427Z,49.05
2023-01-22T00:20:22.480Z,45.65
2023-01-22T00:22:52.351Z,44.48
2023-01-22T00:25:23.842Z,46.05
2023-01-22T00:27:53.787Z,45.85
2023-01-22T00:30:22.807Z,46.18
2023-01-22T00:32:53.851Z,47.55
2023-01-22T00:35:24.169Z,47.03
2023-01-22T00:37:56.226Z,48.65
2023-01-22T00:40:25.649Z,47.08
2023-01-22T00:42:54.770Z,52.75
2023-01-22T00:45:24.089Z,44.38
2023-01-22T00:47:53.670Z,46.75
2023-01-22T00:50:22.878Z,45.48
2023-01-22T00:52:51.845Z,53.02
2023-01-22T00:55:21.259Z,48.28
2023-01-22T00:57:50.245Z,42.40
2023-01-22T01:00:20.595Z,48.52
2023-01-22T04:50:36.651Z,21.70
2023-01-22T04:53:05.897Z,23.73
2023-01-22T04:55:34.902Z,21.82
2023-01-22T04:58:07.459Z,24.07
2023-01-22T05:00:37.827Z,22.25
2023-01-22T05:03:07.319Z,24.15
2023-01-22T05:05:35.946Z,23.07
2023-01-22T05:08:05.520Z,25.97
2023-01-22T05:10:35.989Z,24.20
2023-01-22T05:13:07.950Z,24.57
2023-01-22T05:15:37.479Z,24.92
2023-01-22T05:18:09.936Z,24.27
2023-01-22T05:20:40.318Z,24.37
2023-01-22T05:23:10.645Z,22.02
2023-01-22T05:25:39.646Z,23.80
2023-01-22T05:28:08.645Z,22.67
2023-01-22T05:30:42.136Z,25.65
2023-01-22T05:33:29.996Z,24.20
2023-01-22T05:36:00.923Z,24.35
2023-01-22T05:38:31.569Z,19.10
2023-01-22T05:41:01.124Z,22.48
2023-01-22T05:43:33.232Z,20.05
2023-01-22T05:46:05.049Z,21.75
2023-01-22T05:48:52.748Z,22.37
2023-01-22T05:51:26.872Z,19.95
2023-01-22T05:53:56.301Z,22.67
2023-01-22T05:56:28.047Z,21.62
2023-01-22T05:58:57.792Z,22.90
2023-01-22T06:01:27.193Z,23.73
2023-01-22T06:03:56.488Z,21.95
2023-01-22T06:06:27.370Z,25.85
2023-01-22T06:08:57.054Z,22.45
2023-01-22T06:11:27.249Z,21.80
2023-01-22T06:13:56.377Z,20.15
2023-01-22T06:16:26.294Z,21.75
2023-01-22T06:19:05.959Z,20.17
2023-01-22T06:21:46.079Z,23.70
2023-01-22T06:24:15.796Z,22.80
2023-01-22T06:26:44.575Z,20.72
2023-01-22T06:29:14.919Z,24.63
2023-01-22T06:31:44.234Z,18.75
2023-01-22T06:34:18.980Z,22.37
2023-01-22T06:36:47.735Z,21.07
2023-01-22T06:39:17.645Z,21.27
2023-01-22T06:41:48.370Z,22.87
2023-01-22T06:44:19.143Z,19.75
2023-01-22T06:46:48.142Z,24.90
2023-01-22T06:49:18.873Z,22.10
2023-01-22T06:51:47.750Z,20.77
2023-01-22T06:54:17.685Z,21.73
2023-01-22T06:56:46.928Z,22.40
2023-01-22T06:59:16.001Z,21.33
2023-01-22T07:01:45.685Z,24.20
2023-01-22T07:04:17.063Z,22.98
2023-01-22T07:06:46.782Z,21.35
2023-01-22T07:09:16.338Z,24.70
2023-01-22T07:11:45.171Z,27.60
2023-01-22T07:14:14.864Z,26.65
2023-01-22T07:16:43.938Z,25.17
2023-01-22T07:19:14.868Z,24.15
2023-01-22T07:21:44.146Z,25.25
2023-01-22T07:24:14.849Z,27.65
2023-01-22T07:26:45.169Z,27.37
2023-01-22T07:29:13.688Z,24.65
2023-01-22T07:31:43.044Z,29.23
2023-01-22T07:34:12.224Z,27.20
2023-01-22T07:36:41.080Z,25.05
2023-01-22T07:39:09.705Z,24.00
2023-01-22T07:41:38.421Z,26.57
2023-01-22T07:44:10.266Z,27.75
2023-01-22T07:46:40.479Z,30.85
2023-01-22T07:49:10.291Z,34.38
2023-01-22T07:51:38.875Z,26.10
2023-01-22T07:54:07.880Z,26.23
2023-01-22T07:56:37.749Z,21.90
2023-01-22T07:59:08.307Z,26.17
2023-01-22T08:01:38.478Z,27.87
2023-01-22T08:04:08.169Z,24.18
2023-01-22T08:06:37.683Z,30.68
2023-01-22T08:09:07.021Z,28.73
2023-01-22T08:11:35.816Z,25.23
2023-01-22T08:14:05.013Z,27.17
2023-01-22T08:16:35.414Z,27.22
2023-01-22T08:19:04.584Z,26.35
2023-01-22T08:21:34.907Z,27.40
2023-01-22T08:24:05.283Z,28.80
2023-01-22T08:26:34.056Z,28.95
2023-01-22T08:29:06.049Z,28.47
2023-01-22T08:31:34.365Z,29.55
2023-01-22T08:34:03.230Z,31.62
2023-01-22T08:36:32.721Z,34.18
2023-01-22T08:39:03.923Z,28.57
2023-01-22T08:41:33.130Z,30.43
2023-01-22T08:44:02.721Z,32.98
2023-01-22T08:46:35.313Z,29.65
2023-01-22T08:49:07.695Z,31.33
2023-01-22T08:51:38.738Z,26.57
2023-01-22T08:54:08.662Z,34.65
2023-01-22T08:56:40.393Z,36.83
2023-01-22T08:59:08.962Z,36.53
2023-01-22T09:01:37.670Z,32.20
2023-01-22T09:04:07.714Z,34.85
2023-01-22T09:06:37.779Z,32.83
2023-01-22T09:09:07.063Z,36.15
2023-01-22T09:11:37.280Z,37.58
2023-01-22T09:14:07.424Z,36.73
2023-01-22T09:16:36.093Z,33.50
2023-01-22T09:19:06.160Z,32.33
2023-01-22T09:21:36.410Z,36.20
2023-01-22T09:24:06.108Z,34.95
2023-01-22T09:26:36.453Z,33.05
2023-01-22T09:29:05.719Z,34.08
2023-01-22T09:31:35.386Z,35.15
2023-01-22T09:34:04.328Z,34.43
2023-01-22T09:36:33.416Z,34.73
2023-01-22T09:39:02.038Z,36.38
2023-01-22T09:41:41.220Z,32.85
2023-01-22T09:44:40.097Z,33.67
2023-01-22T09:47:13.564Z,33.40
2023-01-22T09:50:05.149Z,32.03
2023-01-22T09:52:36.842Z,31.97
2023-01-22T09:55:14.599Z,33.25
2023-01-22T09:57:48.481Z,33.65
2023-01-22T10:00:39.781Z,33.80
2023-01-22T10:03:16.406Z,35.58
2023-01-22T10:05:53.191Z,36.85
2023-01-22T13:13:36.376Z,22.73
2023-01-22T13:16:24.468Z,21.00
2023-01-22T13:18:56.675Z,22.80
2023-01-22T13:21:31.439Z,18.20
2023-01-22T13:24:06.897Z,21.30
2023-01-22T13:26:37.285Z,19.27
2023-01-22T13:29:28.805Z,19.60
2023-01-22T13:32:01.572Z,14.33
2023-01-22T13:34:31.438Z,17.15
2023-01-22T13:37:00.885Z,15.40
2023-01-22T13:39:33.009Z,12.60
2023-01-22T13:42:04.769Z,13.75
2023-01-22T13:44:39.768Z,14.98
2023-01-22T13:47:11.035Z,13.35
2023-01-22T13:49:43.542Z,14.80
2023-01-22T13:52:16.879Z,13.50
2023-01-22T13:54:56.399Z,14.93
2023-01-22T13:57:26.482Z,15.30
2023-01-22T14:00:00.385Z,12.25
2023-01-22T14:02:34.433Z,17.02
2023-01-22T14:05:05.399Z,14.90
2023-01-22T14:07:37.650Z,11.75
2023-01-22T14:10:22.772Z,13.35
2023-01-22T14:13:06.748Z,12.80
2023-01-22T14:15:37.024Z,18.50
2023-01-22T14:18:17.280Z,17.25
2023-01-22T14:20:47.315Z,16.73
2023-01-22T14:23:17.613Z,21.35
2023-01-22T14:25:51.165Z,17.52
2023-01-22T14:28:21.566Z,20.23
2023-01-22T14:30:50.646Z,18.85
2023-01-22T14:33:24.891Z,18.37
2023-01-22T14:35:54.316Z,23.57
2023-01-22T14:38:23.255Z,19.30
2023-01-22T14:40:52.962Z,19.90
2023-01-22T14:43:23.490Z,18.45
2023-01-22T14:45:53.512Z,17.90
2023-01-22T14:48:22.875Z,18.62
2023-01-22T14:50:52.542Z,22.90
2023-01-22T14:53:22.555Z,19.55
2023-01-22T14:55:52.255Z,19.42
2023-01-22T14:58:22.935Z,24.75
2023-01-22T15:00:52.287Z,24.75
2023-01-22T15:03:21.452Z,28.52
2023-01-22T15:05:52.751Z,28.65
2023-01-22T15:08:22.613Z,26.20
2023-01-22T15:10:52.178Z,21.93
2023-01-22T15:13:22.076Z,23.80
2023-01-22T15:15:52.826Z,24.90
2023-01-22T15:18:21.973Z,22.37
2023-01-22T15:20:50.950Z,22.05
2023-01-22T15:23:20.882Z,24.20
2023-01-22T15:26:00.456Z,26.12
2023-01-22T15:28:30.919Z,23.07
2023-01-22T15:31:06.759Z,26.73
2023-01-22T15:33:37.451Z,23.98
2023-01-22T15:36:09.012Z,22.58
2023-01-22T15:38:38.326Z,21.52
2023-01-22T15:41:27.508Z,24.15
2023-01-22T15:44:00.106Z,32.73
2023-01-22T15:46:32.851Z,22.37
2023-01-22T15:49:02.787Z,23.75
2023-01-22T15:51:32.295Z,23.80
2023-01-22T15:54:03.266Z,28.92
2023-01-22T15:56:36.320Z,30.70
2023-01-22T15:59:05.554Z,23.35
2023-01-22T16:01:35.934Z,23.27
2023-01-22T16:04:06.631Z,25.95
2023-01-22T16:06:36.848Z,21.70
2023-01-22T16:09:08.556Z,24.52
2023-01-22T16:11:37.336Z,26.90
2023-01-22T16:14:07.374Z,25.27
2023-01-22T16:16:37.775Z,22.35
2023-01-22T16:19:08.768Z,28.77
2023-01-22T16:21:38.107Z,27.60
2023-01-22T16:24:07.861Z,23.83
2023-01-22T16:26:39.059Z,26.23
2023-01-22T16:29:08.966Z,26.37
2023-01-22T16:31:38.967Z,38.45
2023-01-22T16:34:15.930Z,47.70
2023-01-22T16:36:45.506Z,34.15
2023-01-22T16:39:21.343Z,28.62
2023-01-22T16:41:51.354Z,32.25
2023-01-22T16:44:27.686Z,30.10
2023-01-22T16:46:59.212Z,29.45
2023-01-22T16:49:34.144Z,31.95
2023-01-22T16:52:21.402Z,28.90
2023-01-22T16:54:39.121Z,27.42
2023-01-22T16:57:10.008Z,38.53
2023-01-22T16:59:42.568Z,33.88
2023-01-22T17:02:15.690Z,25.68
2023-01-22T17:04:46.536Z,24.75
2023-01-22T17:07:31.896Z,24.70
2023-01-22T17:09:47.862Z,19.87
2023-01-22T17:12:17.557Z,24.37
2023-01-22T17:14:51.300Z,22.95
2023-01-22T17:17:21.426Z,25.15
2023-01-22T17:19:51.826Z,23.65
2023-01-22T17:22:24.172Z,21.68
2023-01-22T17:24:54.505Z,24.63
2023-01-22T17:27:26.000Z,21.87
2023-01-22T17:29:55.496Z,22.45
2023-01-22T17:32:26.499Z,24.27
2023-01-22T17:34:56.502Z,35.03
2023-01-22T17:37:26.370Z,21.30
2023-01-22T17:39:55.664Z,17.92
2023-01-22T17:42:24.599Z,19.77
2023-01-22T17:44:53.834Z,21.77
2023-01-22T17:47:22.775Z,20.97
2023-01-22T17:49:52.790Z,21.65
2023-01-22T17:52:23.483Z,20.72
2023-01-22T17:54:55.669Z,18.25
2023-01-22T17:57:26.102Z,21.15
2023-01-22T17:59:56.355Z,22.10
2023-01-22T18:02:26.966Z,20.10
2023-01-22T18:04:56.990Z,19.57
2023-01-22T18:07:27.205Z,19.32
2023-01-22T18:09:56.576Z,20.68
2023-01-22T18:12:25.727Z,20.50
2023-01-22T18:14:55.205Z,23.92
2023-01-22T18:17:25.014Z,23.12
2023-01-22T18:19:54.744Z,20.55
2023-01-22T18:22:24.722Z,26.90
2023-01-22T18:24:54.330Z,20.25
2023-01-22T18:27:23.867Z,20.85
2023-01-22T18:29:54.605Z,21.10
2023-01-22T18:32:26.812Z,19.00
2023-01-22T18:35:04.389Z,20.88
2023-01-22T18:37:34.015Z,21.70
2023-01-22T18:40:04.533Z,18.30
2023-01-22T18:42:34.809Z,18.37
2023-01-22T18:45:05.286Z,20.85
2023-01-22T18:47:37.102Z,18.32
2023-01-22T18:50:08.606Z,16.62
2023-01-22T18:52:38.637Z,16.25
2023-01-22T18:55:09.269Z,21.35
2023-01-22T18:57:50.202Z,19.92
2023-01-22T19:00:22.824Z,18.73
2023-01-22T19:02:56.125Z,21.90
2023-01-22T19:05:25.941Z,17.98
2023-01-22T19:07:56.123Z,20.88
2023-01-22T19:10:27.495Z,20.72
2023-01-22T19:12:57.097Z,18.95
2023-01-22T19:15:27.371Z,19.92
2023-01-22T19:17:56.422Z,17.37
2023-01-22T19:20:25.694Z,18.35
2023-01-22T19:22:55.707Z,15.28
2023-01-22T19:25:25.131Z,13.83
2023-01-22T19:27:55.657Z,17.75
2023-01-22T19:30:25.760Z,17.40
2023-01-22T19:32:55.818Z,18.00
2023-01-22T19:35:25.299Z,16.70
2023-01-22T19:37:57.115Z,19.05
2023-01-22T19:40:30.886Z,16.12
2023-01-22T19:43:02.217Z,19.32
2023-01-22T19:45:32.525Z,20.80
2023-01-22T19:48:05.337Z,15.25
2023-01-22T19:50:34.579Z,19.02
2023-01-22T19:53:03.342Z,19.60
2023-01-22T19:55:37.536Z,15.78
2023-01-22T19:58:07.128Z,17.65
2023-01-22T20:00:36.636Z,17.20
2023-01-22T20:03:08.088Z,17.20
2023-01-22T20:05:41.191Z,20.72
2023-01-22T20:08:11.497Z,16.40
2023-01-22T20:10:40.507Z,19.32
2023-01-22T20:13:10.901Z,16.93
2023-01-22T20:15:41.377Z,17.57
2023-01-22T20:18:10.820Z,19.12
2023-01-22T20:20:39.987Z,23.77
2023-01-22T20:25:45.006Z,20.43
2023-01-22T20:28:15.675Z,18.15
2023-01-22T20:30:46.424Z,19.35
2023-01-22T20:33:15.938Z,19.42
2023-01-22T20:35:45.797Z,22.25
2023-01-22T20:38:16.815Z,17.32
2023-01-22T20:40:47.503Z,17.30
2023-01-22T20:43:17.789Z,21.25
2023-01-22T20:46:02.611Z,20.27
2023-01-22T20:48:31.961Z,19.73
2023-01-22T20:51:01.524Z,22.10
2023-01-22T20:53:30.696Z,19.20
2023-01-22T20:56:02.819Z,19.80
2023-01-22T20:58:32.188Z,21.05
2023-01-22T21:01:10.668Z,16.75
2023-01-22T21:03:39.850Z,16.30
2023-01-22T21:06:13.578Z,19.02
2023-01-22T21:08:42.573Z,18.07
2023-01-22T21:11:13.440Z,14.50
2023-01-22T21:13:42.800Z,14.07
2023-01-22T21:16:16.859Z,15.78
2023-01-22T21:18:46.510Z,16.67
2023-01-22T21:21:18.789Z,15.53
2023-01-22T21:23:48.447Z,12.68
2023-01-22T21:26:25.606Z,16.67
2023-01-22T21:29:02.166Z,16.25
2023-01-22T21:31:32.801Z,16.45
2023-01-22T21:34:04.162Z,15.78
2023-01-22T21:36:47.993Z,16.75
2023-01-22T21:39:23.905Z,16.07
2023-01-22T21:41:54.920Z,18.82
2023-01-22T21:44:42.431Z,18.00
2023-01-22T21:47:11.595Z,18.75
2023-01-22T21:49:42.309Z,18.52
2023-01-22T21:52:11.834Z,18.50
2023-01-22T21:54:41.873Z,17.52
2023-01-22T21:57:14.457Z,19.00
2023-01-22T21:59:46.487Z,18.40
2023-01-22T22:02:18.642Z,20.68
2023-01-22T22:04:48.611Z,23.02
2023-01-22T22:07:18.126Z,23.45
2023-01-22T22:09:47.593Z,24.52
2023-01-22T22:12:20.362Z,22.40
2023-01-22T22:14:52.507Z,25.17
2023-01-22T22:17:21.813Z,22.80
2023-01-22T22:19:50.871Z,20.95
2023-01-22T22:22:19.950Z,20.12
2023-01-22T22:24:51.126Z,21.52
2023-01-22T22:27:21.948Z,18.95
2023-01-22T22:29:54.269Z,20.52
2023-01-22T22:32:23.606Z,16.95
2023-01-22T22:34:54.300Z,19.42
2023-01-22T22:37:24.409Z,21.10
2023-01-22T22:39:53.427Z,17.90
2023-01-22T22:42:22.374Z,20.32
2023-01-22T22:46:05.660Z,17.25
2023-01-22T22:49:13.097Z,22.32
2023-01-22T22:51:59.778Z,20.10
2023-01-22T22:54:28.604Z,20.52
2023-01-22T22:56:57.336Z,20.88
2023-01-22T22:59:26.897Z,24.15
2023-01-22T23:01:56.632Z,23.42
2023-01-22T23:04:25.952Z,26.87
2023-01-22T23:06:55.735Z,23.92
2023-01-22T23:09:24.700Z,22.70
2023-01-22T23:11:55.906Z,28.87
2023-01-22T23:14:24.979Z,25.32
2023-01-22T23:16:53.734Z,24.45
2023-01-22T23:19:25.918Z,26.30
2023-01-22T23:22:00.277Z,25.17
2023-01-22T23:24:29.541Z,27.85
2023-01-22T23:26:58.455Z,21.75
2023-01-22T23:29:29.128Z,21.68
2023-01-22T23:31:58.494Z,19.92
2023-01-22T23:34:27.495Z,24.75
2023-01-22T23:36:56.591Z,24.55
2023-01-22T23:39:26.075Z,24.25
2023-01-22T23:41:55.718Z,26.10
2023-01-22T23:44:26.304Z,22.45
2023-01-22T23:46:55.344Z,24.75
2023-01-22T23:49:25.234Z,21.87
2023-01-22T23:51:54.539Z,22.20
2023-01-22T23:54:25.375Z,27.37
2023-01-22T23:56:55.079Z,28.80
2023-01-22T23:59:24.021Z,23.85
